sensor_id;sensor_type;location;lat;lon;timestamp;temperature;humidity
29431;DHT22;16404;49.902;10.074;2022-10-16T00:00:40;20.50;74.40
29431;DHT22;16404;49.902;10.074;2022-10-16T00:03:25;20.50;74.30
29431;DHT22;16404;49.902;10.074;2022-10-16T00:06:10;20.50;74.20
29431;DHT22;16404;49.902;10.074;2022-10-16T00:08:55;20.50;74.20
29431;DHT22;16404;49.902;10.074;2022-10-16T00:11:41;20.60;74.10
29431;DHT22;16404;49.902;10.074;2022-10-16T00:14:25;20.50;73.80
29431;DHT22;16404;49.902;10.074;2022-10-16T00:17:10;20.50;73.90
29431;DHT22;16404;49.902;10.074;2022-10-16T00:19:54;20.50;74.00
29431;DHT22;16404;49.902;10.074;2022-10-16T00:22:39;20.50;74.10
29431;DHT22;16404;49.902;10.074;2022-10-16T00:25:24;20.40;74.10
29431;DHT22;16404;49.902;10.074;2022-10-16T00:28:08;20.50;74.20
29431;DHT22;16404;49.902;10.074;2022-10-16T00:30:53;20.40;74.30
29431;DHT22;16404;49.902;10.074;2022-10-16T00:33:39;20.40;74.30
29431;DHT22;16404;49.902;10.074;2022-10-16T00:36:25;20.40;74.60
29431;DHT22;16404;49.902;10.074;2022-10-16T00:39:10;20.40;74.60
29431;DHT22;16404;49.902;10.074;2022-10-16T00:41:54;20.40;74.70
29431;DHT22;16404;49.902;10.074;2022-10-16T00:44:43;20.30;74.90
29431;DHT22;16404;49.902;10.074;2022-10-16T00:47:37;20.40;75.00
29431;DHT22;16404;49.902;10.074;2022-10-16T00:53:14;20.40;75.40
29431;DHT22;16404;49.902;10.074;2022-10-16T00:55:58;20.40;74.80
29431;DHT22;16404;49.902;10.074;2022-10-16T00:58:43;20.40;74.80
29431;DHT22;16404;49.902;10.074;2022-10-16T01:01:28;20.40;74.90
29431;DHT22;16404;49.902;10.074;2022-10-16T01:04:13;20.40;74.80
29431;DHT22;16404;49.902;10.074;2022-10-16T01:13:06;20.40;75.00
29431;DHT22;16404;49.902;10.074;2022-10-16T01:16:31;20.40;75.00
29431;DHT22;16404;49.902;10.074;2022-10-16T01:22:39;20.40;75.30
29431;DHT22;16404;49.902;10.074;2022-10-16T01:28:54;20.40;75.00
29431;DHT22;16404;49.902;10.074;2022-10-16T01:31:41;20.50;74.70
29431;DHT22;16404;49.902;10.074;2022-10-16T01:34:36;20.50;74.70
29431;DHT22;16404;49.902;10.074;2022-10-16T01:37:46;20.40;74.80
29431;DHT22;16404;49.902;10.074;2022-10-16T01:40:34;20.10;75.80
29431;DHT22;16404;49.902;10.074;2022-10-16T01:43:25;20.00;76.10
29431;DHT22;16404;49.902;10.074;2022-10-16T01:46:10;19.80;77.20
29431;DHT22;16404;49.902;10.074;2022-10-16T01:48:57;19.80;77.40
29431;DHT22;16404;49.902;10.074;2022-10-16T01:51:45;19.80;77.60
29431;DHT22;16404;49.902;10.074;2022-10-16T01:54:34;19.80;77.50
29431;DHT22;16404;49.902;10.074;2022-10-16T01:57:20;19.80;77.20
29431;DHT22;16404;49.902;10.074;2022-10-16T02:00:10;19.70;77.40
29431;DHT22;16404;49.902;10.074;2022-10-16T02:03:01;19.60;77.50
29431;DHT22;16404;49.902;10.074;2022-10-16T02:05:51;19.50;77.80
29431;DHT22;16404;49.902;10.074;2022-10-16T02:08:37;19.50;77.80
29431;DHT22;16404;49.902;10.074;2022-10-16T02:11:23;19.60;77.30
29431;DHT22;16404;49.902;10.074;2022-10-16T02:14:08;19.60;77.10
29431;DHT22;16404;49.902;10.074;2022-10-16T02:16:52;19.70;76.60
29431;DHT22;16404;49.902;10.074;2022-10-16T02:19:37;19.80;76.10
29431;DHT22;16404;49.902;10.074;2022-10-16T02:22:25;19.90;75.90
29431;DHT22;16404;49.902;10.074;2022-10-16T02:25:12;19.90;75.60
29431;DHT22;16404;49.902;10.074;2022-10-16T02:28:21;19.90;75.40
29431;DHT22;16404;49.902;10.074;2022-10-16T02:31:09;19.90;75.30
29431;DHT22;16404;49.902;10.074;2022-10-16T02:33:58;20.00;75.00
29431;DHT22;16404;49.902;10.074;2022-10-16T02:36:44;20.00;75.10
29431;DHT22;16404;49.902;10.074;2022-10-16T02:39:30;20.00;75.10
29431;DHT22;16404;49.902;10.074;2022-10-16T02:42:17;20.00;75.10
29431;DHT22;16404;49.902;10.074;2022-10-16T02:45:03;20.00;75.20
29431;DHT22;16404;49.902;10.074;2022-10-16T02:47:48;20.00;75.20
29431;DHT22;16404;49.902;10.074;2022-10-16T02:50:33;20.10;75.20
29431;DHT22;16404;49.902;10.074;2022-10-16T02:53:17;20.10;75.20
29431;DHT22;16404;49.902;10.074;2022-10-16T02:56:02;20.10;75.20
29431;DHT22;16404;49.902;10.074;2022-10-16T02:58:47;20.10;75.00
29431;DHT22;16404;49.902;10.074;2022-10-16T03:01:31;20.10;75.10
29431;DHT22;16404;49.902;10.074;2022-10-16T03:04:16;20.10;75.20
29431;DHT22;16404;49.902;10.074;2022-10-16T03:07:00;20.10;75.30
29431;DHT22;16404;49.902;10.074;2022-10-16T03:09:45;20.10;75.20
29431;DHT22;16404;49.902;10.074;2022-10-16T03:12:29;20.20;75.00
29431;DHT22;16404;49.902;10.074;2022-10-16T03:15:14;20.20;74.80
29431;DHT22;16404;49.902;10.074;2022-10-16T03:17:59;20.20;74.70
29431;DHT22;16404;49.902;10.074;2022-10-16T03:20:43;20.20;74.70
29431;DHT22;16404;49.902;10.074;2022-10-16T03:23:28;20.20;74.50
29431;DHT22;16404;49.902;10.074;2022-10-16T03:26:13;20.20;74.40
29431;DHT22;16404;49.902;10.074;2022-10-16T03:28:57;20.20;74.50
29431;DHT22;16404;49.902;10.074;2022-10-16T03:31:42;20.20;74.50
29431;DHT22;16404;49.902;10.074;2022-10-16T03:34:26;20.20;74.50
29431;DHT22;16404;49.902;10.074;2022-10-16T03:37:12;20.20;74.50
29431;DHT22;16404;49.902;10.074;2022-10-16T03:39:57;20.20;74.60
29431;DHT22;16404;49.902;10.074;2022-10-16T03:42:45;20.20;74.50
29431;DHT22;16404;49.902;10.074;2022-10-16T03:45:29;20.20;74.40
29431;DHT22;16404;49.902;10.074;2022-10-16T03:48:13;20.20;74.30
29431;DHT22;16404;49.902;10.074;2022-10-16T03:50:58;20.20;74.20
29431;DHT22;16404;49.902;10.074;2022-10-16T03:53:43;20.20;74.20
29431;DHT22;16404;49.902;10.074;2022-10-16T03:56:27;20.10;74.00
29431;DHT22;16404;49.902;10.074;2022-10-16T03:59:12;20.20;74.10
29431;DHT22;16404;49.902;10.074;2022-10-16T04:01:56;20.10;74.80
29431;DHT22;16404;49.902;10.074;2022-10-16T04:04:41;20.10;74.30
29431;DHT22;16404;49.902;10.074;2022-10-16T04:07:25;20.10;74.30
29431;DHT22;16404;49.902;10.074;2022-10-16T04:10:10;20.00;74.40
29431;DHT22;16404;49.902;10.074;2022-10-16T04:12:55;20.00;74.60
29431;DHT22;16404;49.902;10.074;2022-10-16T04:15:40;20.00;74.60
29431;DHT22;16404;49.902;10.074;2022-10-16T04:18:24;19.90;74.80
29431;DHT22;16404;49.902;10.074;2022-10-16T04:21:11;20.00;74.80
29431;DHT22;16404;49.902;10.074;2022-10-16T04:23:55;19.90;74.70
29431;DHT22;16404;49.902;10.074;2022-10-16T04:26:40;19.90;74.70
29431;DHT22;16404;49.902;10.074;2022-10-16T04:29:24;19.90;74.60
29431;DHT22;16404;49.902;10.074;2022-10-16T04:32:09;19.90;74.50
29431;DHT22;16404;49.902;10.074;2022-10-16T04:34:54;19.90;74.50
29431;DHT22;16404;49.902;10.074;2022-10-16T04:37:38;19.90;74.40
29431;DHT22;16404;49.902;10.074;2022-10-16T04:40:23;19.90;74.50
29431;DHT22;16404;49.902;10.074;2022-10-16T04:43:08;19.90;74.50
29431;DHT22;16404;49.902;10.074;2022-10-16T04:45:53;19.90;74.50
29431;DHT22;16404;49.902;10.074;2022-10-16T04:48:38;19.90;74.60
29431;DHT22;16404;49.902;10.074;2022-10-16T04:51:23;19.90;74.70
29431;DHT22;16404;49.902;10.074;2022-10-16T04:54:09;19.90;74.80
29431;DHT22;16404;49.902;10.074;2022-10-16T04:56:53;19.90;74.70
29431;DHT22;16404;49.902;10.074;2022-10-16T04:59:38;19.90;74.60
29431;DHT22;16404;49.902;10.074;2022-10-16T05:02:22;19.90;74.50
29431;DHT22;16404;49.902;10.074;2022-10-16T05:05:07;19.90;74.70
29431;DHT22;16404;49.902;10.074;2022-10-16T05:07:52;19.90;74.70
29431;DHT22;16404;49.902;10.074;2022-10-16T05:10:36;19.90;74.70
29431;DHT22;16404;49.902;10.074;2022-10-16T05:13:21;19.90;74.60
29431;DHT22;16404;49.902;10.074;2022-10-16T05:16:07;19.90;74.50
29431;DHT22;16404;49.902;10.074;2022-10-16T05:18:51;19.90;74.50
29431;DHT22;16404;49.902;10.074;2022-10-16T05:21:36;19.90;74.50
29431;DHT22;16404;49.902;10.074;2022-10-16T05:24:21;19.90;74.60
29431;DHT22;16404;49.902;10.074;2022-10-16T05:27:06;19.80;74.70
29431;DHT22;16404;49.902;10.074;2022-10-16T05:29:50;19.90;74.50
29431;DHT22;16404;49.902;10.074;2022-10-16T05:32:35;19.90;74.40
29431;DHT22;16404;49.902;10.074;2022-10-16T05:35:20;19.90;74.60
29431;DHT22;16404;49.902;10.074;2022-10-16T05:38:04;19.90;74.60
29431;DHT22;16404;49.902;10.074;2022-10-16T05:40:52;19.90;74.50
29431;DHT22;16404;49.902;10.074;2022-10-16T05:43:36;19.90;74.70
29431;DHT22;16404;49.902;10.074;2022-10-16T05:46:21;19.90;74.70
29431;DHT22;16404;49.902;10.074;2022-10-16T05:49:05;19.90;74.70
29431;DHT22;16404;49.902;10.074;2022-10-16T05:51:50;19.90;74.50
29431;DHT22;16404;49.902;10.074;2022-10-16T05:54:35;19.90;74.50
29431;DHT22;16404;49.902;10.074;2022-10-16T05:57:19;19.90;74.40
29431;DHT22;16404;49.902;10.074;2022-10-16T06:00:04;19.80;74.40
29431;DHT22;16404;49.902;10.074;2022-10-16T06:02:56;19.80;74.70
29431;DHT22;16404;49.902;10.074;2022-10-16T06:05:41;19.80;74.60
29431;DHT22;16404;49.902;10.074;2022-10-16T06:08:26;19.80;74.60
29431;DHT22;16404;49.902;10.074;2022-10-16T06:11:14;19.80;74.50
29431;DHT22;16404;49.902;10.074;2022-10-16T06:14:00;19.80;74.60
29431;DHT22;16404;49.902;10.074;2022-10-16T06:16:46;19.80;74.70
29431;DHT22;16404;49.902;10.074;2022-10-16T06:19:31;19.80;74.70
29431;DHT22;16404;49.902;10.074;2022-10-16T06:22:15;19.70;74.70
29431;DHT22;16404;49.902;10.074;2022-10-16T06:25:00;19.70;74.70
29431;DHT22;16404;49.902;10.074;2022-10-16T06:27:45;19.80;74.70
29431;DHT22;16404;49.902;10.074;2022-10-16T06:30:30;19.80;74.70
29431;DHT22;16404;49.902;10.074;2022-10-16T06:33:14;19.80;74.70
29431;DHT22;16404;49.902;10.074;2022-10-16T06:36:10;19.80;74.70
29431;DHT22;16404;49.902;10.074;2022-10-16T06:38:55;19.80;74.80
29431;DHT22;16404;49.902;10.074;2022-10-16T06:41:39;19.80;74.60
29431;DHT22;16404;49.902;10.074;2022-10-16T06:44:33;19.80;74.80
29431;DHT22;16404;49.902;10.074;2022-10-16T06:47:18;19.80;74.90
29431;DHT22;16404;49.902;10.074;2022-10-16T06:50:03;19.80;75.10
29431;DHT22;16404;49.902;10.074;2022-10-16T06:52:47;19.80;75.10
29431;DHT22;16404;49.902;10.074;2022-10-16T06:55:32;19.90;75.20
29431;DHT22;16404;49.902;10.074;2022-10-16T06:58:16;19.90;75.50
29431;DHT22;16404;49.902;10.074;2022-10-16T07:01:01;19.90;75.70
29431;DHT22;16404;49.902;10.074;2022-10-16T07:03:46;19.90;75.80
29431;DHT22;16404;49.902;10.074;2022-10-16T07:06:33;19.90;75.90
29431;DHT22;16404;49.902;10.074;2022-10-16T07:09:17;19.90;75.80
29431;DHT22;16404;49.902;10.074;2022-10-16T07:12:02;20.00;75.80
29431;DHT22;16404;49.902;10.074;2022-10-16T07:14:46;20.00;75.70
29431;DHT22;16404;49.902;10.074;2022-10-16T07:17:32;20.00;75.70
29431;DHT22;16404;49.902;10.074;2022-10-16T07:20:16;20.10;75.50
29431;DHT22;16404;49.902;10.074;2022-10-16T07:23:00;20.30;75.20
29431;DHT22;16404;49.902;10.074;2022-10-16T07:25:45;20.30;74.60
29431;DHT22;16404;49.902;10.074;2022-10-16T07:28:30;20.30;74.80
29431;DHT22;16404;49.902;10.074;2022-10-16T07:31:18;20.30;75.20
29431;DHT22;16404;49.902;10.074;2022-10-16T07:34:02;20.30;75.40
29431;DHT22;16404;49.902;10.074;2022-10-16T07:36:50;20.30;75.60
29431;DHT22;16404;49.902;10.074;2022-10-16T07:39:38;20.40;75.70
29431;DHT22;16404;49.902;10.074;2022-10-16T07:42:23;20.40;75.40
29431;DHT22;16404;49.902;10.074;2022-10-16T07:45:08;20.50;75.20
29431;DHT22;16404;49.902;10.074;2022-10-16T07:47:52;20.60;75.10
29431;DHT22;16404;49.902;10.074;2022-10-16T07:50:36;20.60;75.00
29431;DHT22;16404;49.902;10.074;2022-10-16T07:53:22;20.70;74.90
29431;DHT22;16404;49.902;10.074;2022-10-16T07:56:07;20.70;74.90
29431;DHT22;16404;49.902;10.074;2022-10-16T07:58:52;20.70;75.00
29431;DHT22;16404;49.902;10.074;2022-10-16T08:01:36;20.80;75.20
29431;DHT22;16404;49.902;10.074;2022-10-16T08:04:21;20.90;74.90
29431;DHT22;16404;49.902;10.074;2022-10-16T08:07:07;20.90;74.40
29431;DHT22;16404;49.902;10.074;2022-10-16T08:09:52;20.90;74.50
29431;DHT22;16404;49.902;10.074;2022-10-16T08:12:37;20.90;74.70
29431;DHT22;16404;49.902;10.074;2022-10-16T08:15:22;20.90;74.60
29431;DHT22;16404;49.902;10.074;2022-10-16T08:18:06;21.00;74.70
29431;DHT22;16404;49.902;10.074;2022-10-16T08:20:59;21.00;74.80
29431;DHT22;16404;49.902;10.074;2022-10-16T08:23:44;21.00;75.10
29431;DHT22;16404;49.902;10.074;2022-10-16T08:26:29;21.10;75.00
29431;DHT22;16404;49.902;10.074;2022-10-16T08:29:14;21.10;75.00
29431;DHT22;16404;49.902;10.074;2022-10-16T08:32:00;21.10;74.90
29431;DHT22;16404;49.902;10.074;2022-10-16T08:34:46;21.10;75.50
29431;DHT22;16404;49.902;10.074;2022-10-16T08:37:33;21.10;74.70
29431;DHT22;16404;49.902;10.074;2022-10-16T08:43:28;21.30;75.00
29431;DHT22;16404;49.902;10.074;2022-10-16T08:46:34;21.20;75.20
29431;DHT22;16404;49.902;10.074;2022-10-16T08:49:20;21.30;75.40
29431;DHT22;16404;49.902;10.074;2022-10-16T08:52:06;21.40;75.00
29431;DHT22;16404;49.902;10.074;2022-10-16T08:54:55;21.50;75.20
29431;DHT22;16404;49.902;10.074;2022-10-16T08:57:40;21.60;75.00
29431;DHT22;16404;49.902;10.074;2022-10-16T09:00:26;21.70;75.30
29431;DHT22;16404;49.902;10.074;2022-10-16T09:03:18;21.70;74.90
29431;DHT22;16404;49.902;10.074;2022-10-16T09:06:24;21.70;74.80
29431;DHT22;16404;49.902;10.074;2022-10-16T09:21:26;22.20;73.90
29431;DHT22;16404;49.902;10.074;2022-10-16T09:24:19;22.20;73.70
29431;DHT22;16404;49.902;10.074;2022-10-16T09:27:04;22.30;74.00
29431;DHT22;16404;49.902;10.074;2022-10-16T09:29:48;22.40;73.20
29431;DHT22;16404;49.902;10.074;2022-10-16T09:32:33;22.40;72.90
29431;DHT22;16404;49.902;10.074;2022-10-16T09:35:20;22.40;72.50
29431;DHT22;16404;49.902;10.074;2022-10-16T09:38:06;22.40;72.30
29431;DHT22;16404;49.902;10.074;2022-10-16T09:40:51;22.30;72.50
29431;DHT22;16404;49.902;10.074;2022-10-16T09:43:53;22.30;73.30
29431;DHT22;16404;49.902;10.074;2022-10-16T09:46:39;22.40;72.70
29431;DHT22;16404;49.902;10.074;2022-10-16T09:49:25;22.50;72.40
29431;DHT22;16404;49.902;10.074;2022-10-16T09:52:14;22.60;72.30
29431;DHT22;16404;49.902;10.074;2022-10-16T09:55:01;22.60;72.00
29431;DHT22;16404;49.902;10.074;2022-10-16T10:00:35;22.70;71.10
29431;DHT22;16404;49.902;10.074;2022-10-16T10:03:39;22.70;71.80
29431;DHT22;16404;49.902;10.074;2022-10-16T10:06:30;22.70;72.30
29431;DHT22;16404;49.902;10.074;2022-10-16T10:09:29;22.70;72.20
29431;DHT22;16404;49.902;10.074;2022-10-16T10:12:21;22.60;72.30
29431;DHT22;16404;49.902;10.074;2022-10-16T10:15:11;22.60;71.50
29431;DHT22;16404;49.902;10.074;2022-10-16T10:17:57;22.70;72.10
29431;DHT22;16404;49.902;10.074;2022-10-16T10:20:41;22.70;72.30
29431;DHT22;16404;49.902;10.074;2022-10-16T10:23:28;22.70;72.50
29431;DHT22;16404;49.902;10.074;2022-10-16T10:26:21;22.70;71.80
29431;DHT22;16404;49.902;10.074;2022-10-16T10:32:31;22.80;72.50
29431;DHT22;16404;49.902;10.074;2022-10-16T10:35:35;22.80;72.70
29431;DHT22;16404;49.902;10.074;2022-10-16T10:38:40;22.80;72.70
29431;DHT22;16404;49.902;10.074;2022-10-16T10:44:37;22.80;72.10
29431;DHT22;16404;49.902;10.074;2022-10-16T10:50:59;22.80;71.60
29431;DHT22;16404;49.902;10.074;2022-10-16T10:53:48;22.90;71.50
29431;DHT22;16404;49.902;10.074;2022-10-16T10:56:48;22.90;71.00
29431;DHT22;16404;49.902;10.074;2022-10-16T10:59:48;22.90;70.90
29431;DHT22;16404;49.902;10.074;2022-10-16T11:08:46;22.80;72.00
29431;DHT22;16404;49.902;10.074;2022-10-16T11:11:38;22.90;71.60
29431;DHT22;16404;49.902;10.074;2022-10-16T11:14:29;22.90;71.40
29431;DHT22;16404;49.902;10.074;2022-10-16T11:17:21;22.70;72.20
29431;DHT22;16404;49.902;10.074;2022-10-16T11:20:21;22.70;72.30
29431;DHT22;16404;49.902;10.074;2022-10-16T11:23:15;22.80;71.70
29431;DHT22;16404;49.902;10.074;2022-10-16T11:26:04;22.90;71.60
29431;DHT22;16404;49.902;10.074;2022-10-16T11:28:53;22.90;71.80
29431;DHT22;16404;49.902;10.074;2022-10-16T11:31:49;23.00;71.60
29431;DHT22;16404;49.902;10.074;2022-10-16T11:34:49;23.00;71.70
29431;DHT22;16404;49.902;10.074;2022-10-16T11:37:41;23.00;71.60
29431;DHT22;16404;49.902;10.074;2022-10-16T11:41:01;22.90;71.30
29431;DHT22;16404;49.902;10.074;2022-10-16T11:47:33;22.90;70.50
29431;DHT22;16404;49.902;10.074;2022-10-16T11:56:01;22.80;70.90
29431;DHT22;16404;49.902;10.074;2022-10-16T11:59:05;22.80;70.90
29431;DHT22;16404;49.902;10.074;2022-10-16T12:01:56;22.80;70.60
29431;DHT22;16404;49.902;10.074;2022-10-16T12:08:13;22.50;71.90
29431;DHT22;16404;49.902;10.074;2022-10-16T12:11:08;22.50;71.90
29431;DHT22;16404;49.902;10.074;2022-10-16T12:17:22;22.70;72.20
29431;DHT22;16404;49.902;10.074;2022-10-16T12:23:01;22.50;72.10
29431;DHT22;16404;49.902;10.074;2022-10-16T12:25:54;22.50;72.60
29431;DHT22;16404;49.902;10.074;2022-10-16T12:28:40;22.40;72.70
29431;DHT22;16404;49.902;10.074;2022-10-16T12:31:37;22.40;73.00
29431;DHT22;16404;49.902;10.074;2022-10-16T12:34:42;22.50;73.30
29431;DHT22;16404;49.902;10.074;2022-10-16T12:37:36;22.70;73.00
29431;DHT22;16404;49.902;10.074;2022-10-16T12:40:28;22.80;71.90
29431;DHT22;16404;49.902;10.074;2022-10-16T12:49:22;22.70;71.60
29431;DHT22;16404;49.902;10.074;2022-10-16T12:55:20;22.60;72.80
29431;DHT22;16404;49.902;10.074;2022-10-16T12:58:31;22.50;72.50
29431;DHT22;16404;49.902;10.074;2022-10-16T13:01:43;22.50;72.70
29431;DHT22;16404;49.902;10.074;2022-10-16T13:04:46;22.40;72.50
29431;DHT22;16404;49.902;10.074;2022-10-16T13:44:15;22.80;71.60
29431;DHT22;16404;49.902;10.074;2022-10-16T13:47:43;22.80;71.50
29431;DHT22;16404;49.902;10.074;2022-10-16T13:51:12;23.00;71.60
29431;DHT22;16404;49.902;10.074;2022-10-16T13:53:59;23.00;71.60
29431;DHT22;16404;49.902;10.074;2022-10-16T13:56:56;23.20;70.80
29431;DHT22;16404;49.902;10.074;2022-10-16T14:04:46;23.30;71.00
29431;DHT22;16404;49.902;10.074;2022-10-16T14:37:51;23.80;71.00
29431;DHT22;16404;49.902;10.074;2022-10-16T14:40:49;23.90;70.50
29431;DHT22;16404;49.902;10.074;2022-10-16T14:56:55;24.10;70.00
29431;DHT22;16404;49.902;10.074;2022-10-16T14:59:56;24.10;69.90
29431;DHT22;16404;49.902;10.074;2022-10-16T15:03:47;24.10;69.80
29431;DHT22;16404;49.902;10.074;2022-10-16T15:19:18;24.20;68.90
29431;DHT22;16404;49.902;10.074;2022-10-16T15:22:35;24.20;69.10
29431;DHT22;16404;49.902;10.074;2022-10-16T15:28:10;24.20;69.50
29431;DHT22;16404;49.902;10.074;2022-10-16T15:30:55;24.20;69.50
29431;DHT22;16404;49.902;10.074;2022-10-16T15:33:40;24.30;69.50
29431;DHT22;16404;49.902;10.074;2022-10-16T15:36:33;24.30;69.40
29431;DHT22;16404;49.902;10.074;2022-10-16T15:39:20;24.20;69.70
29431;DHT22;16404;49.902;10.074;2022-10-16T15:42:05;24.10;69.60
29431;DHT22;16404;49.902;10.074;2022-10-16T15:44:50;24.10;69.70
29431;DHT22;16404;49.902;10.074;2022-10-16T15:47:35;24.10;69.40
29431;DHT22;16404;49.902;10.074;2022-10-16T15:50:19;24.10;69.30
29431;DHT22;16404;49.902;10.074;2022-10-16T15:53:04;24.10;69.40
29431;DHT22;16404;49.902;10.074;2022-10-16T15:55:48;24.00;69.30
29431;DHT22;16404;49.902;10.074;2022-10-16T15:58:33;24.00;69.20
29431;DHT22;16404;49.902;10.074;2022-10-16T16:01:18;23.90;69.00
29431;DHT22;16404;49.902;10.074;2022-10-16T16:04:03;23.90;69.00
29431;DHT22;16404;49.902;10.074;2022-10-16T16:06:48;23.80;68.90
29431;DHT22;16404;49.902;10.074;2022-10-16T16:09:33;23.80;69.00
29431;DHT22;16404;49.902;10.074;2022-10-16T16:12:18;23.80;69.10
29431;DHT22;16404;49.902;10.074;2022-10-16T16:15:04;23.70;68.90
29431;DHT22;16404;49.902;10.074;2022-10-16T16:17:48;23.70;68.90
29431;DHT22;16404;49.902;10.074;2022-10-16T16:20:33;23.60;68.90
29431;DHT22;16404;49.902;10.074;2022-10-16T16:23:18;23.60;68.90
29431;DHT22;16404;49.902;10.074;2022-10-16T16:26:10;23.60;68.80
29431;DHT22;16404;49.902;10.074;2022-10-16T16:28:55;23.60;69.00
29431;DHT22;16404;49.902;10.074;2022-10-16T16:31:41;23.50;69.00
29431;DHT22;16404;49.902;10.074;2022-10-16T16:34:27;23.60;68.90
29431;DHT22;16404;49.902;10.074;2022-10-16T16:37:11;23.50;68.80
29431;DHT22;16404;49.902;10.074;2022-10-16T16:39:56;23.40;69.10
29431;DHT22;16404;49.902;10.074;2022-10-16T16:42:42;23.30;69.20
29431;DHT22;16404;49.902;10.074;2022-10-16T16:45:27;23.30;69.40
29431;DHT22;16404;49.902;10.074;2022-10-16T16:48:11;23.30;69.50
29431;DHT22;16404;49.902;10.074;2022-10-16T16:50:56;23.30;69.50
29431;DHT22;16404;49.902;10.074;2022-10-16T16:53:42;23.20;69.60
29431;DHT22;16404;49.902;10.074;2022-10-16T16:56:26;23.20;69.60
29431;DHT22;16404;49.902;10.074;2022-10-16T16:59:17;23.20;69.60
29431;DHT22;16404;49.902;10.074;2022-10-16T17:02:04;23.10;69.50
29431;DHT22;16404;49.902;10.074;2022-10-16T17:04:48;23.10;69.50
29431;DHT22;16404;49.902;10.074;2022-10-16T17:07:33;23.10;69.50
29431;DHT22;16404;49.902;10.074;2022-10-16T17:10:18;23.00;69.30
29431;DHT22;16404;49.902;10.074;2022-10-16T17:13:03;22.90;69.50
29431;DHT22;16404;49.902;10.074;2022-10-16T17:15:49;22.90;69.50
29431;DHT22;16404;49.902;10.074;2022-10-16T17:18:34;22.90;69.30
29431;DHT22;16404;49.902;10.074;2022-10-16T17:21:19;22.80;69.30
29431;DHT22;16404;49.902;10.074;2022-10-16T17:24:04;22.70;69.30
29431;DHT22;16404;49.902;10.074;2022-10-16T17:26:49;22.60;69.30
29431;DHT22;16404;49.902;10.074;2022-10-16T17:29:33;22.50;69.30
29431;DHT22;16404;49.902;10.074;2022-10-16T17:32:18;22.40;69.20
29431;DHT22;16404;49.902;10.074;2022-10-16T17:35:04;22.40;69.30
29431;DHT22;16404;49.902;10.074;2022-10-16T17:37:51;22.30;69.20
29431;DHT22;16404;49.902;10.074;2022-10-16T17:40:35;22.20;69.30
29431;DHT22;16404;49.902;10.074;2022-10-16T17:43:20;22.10;69.50
29431;DHT22;16404;49.902;10.074;2022-10-16T17:46:06;22.00;69.50
29431;DHT22;16404;49.902;10.074;2022-10-16T17:48:51;21.90;69.40
29431;DHT22;16404;49.902;10.074;2022-10-16T17:51:39;21.90;69.40
29431;DHT22;16404;49.902;10.074;2022-10-16T17:54:23;21.90;69.30
29431;DHT22;16404;49.902;10.074;2022-10-16T17:57:08;21.80;69.20
29431;DHT22;16404;49.902;10.074;2022-10-16T17:59:55;21.70;69.20
29431;DHT22;16404;49.902;10.074;2022-10-16T18:02:40;21.50;69.10
29431;DHT22;16404;49.902;10.074;2022-10-16T18:05:25;21.50;69.40
29431;DHT22;16404;49.902;10.074;2022-10-16T18:08:10;21.40;69.60
29431;DHT22;16404;49.902;10.074;2022-10-16T18:10:54;21.30;69.60
29431;DHT22;16404;49.902;10.074;2022-10-16T18:13:39;21.20;69.50
29431;DHT22;16404;49.902;10.074;2022-10-16T18:16:25;21.10;69.50
29431;DHT22;16404;49.902;10.074;2022-10-16T18:19:10;21.10;69.80
29431;DHT22;16404;49.902;10.074;2022-10-16T18:21:55;20.90;70.00
29431;DHT22;16404;49.902;10.074;2022-10-16T18:24:39;20.90;69.90
29431;DHT22;16404;49.902;10.074;2022-10-16T18:27:24;20.90;69.70
29431;DHT22;16404;49.902;10.074;2022-10-16T18:30:09;20.80;69.90
29431;DHT22;16404;49.902;10.074;2022-10-16T18:32:53;20.70;70.00
29431;DHT22;16404;49.902;10.074;2022-10-16T18:35:38;20.70;69.90
29431;DHT22;16404;49.902;10.074;2022-10-16T18:38:23;20.70;69.70
29431;DHT22;16404;49.902;10.074;2022-10-16T18:41:09;20.70;69.80
29431;DHT22;16404;49.902;10.074;2022-10-16T18:43:54;20.60;69.90
29431;DHT22;16404;49.902;10.074;2022-10-16T18:46:39;20.50;69.80
29431;DHT22;16404;49.902;10.074;2022-10-16T18:49:24;20.50;69.80
29431;DHT22;16404;49.902;10.074;2022-10-16T18:52:09;20.40;69.70
29431;DHT22;16404;49.902;10.074;2022-10-16T18:54:55;20.40;69.70
29431;DHT22;16404;49.902;10.074;2022-10-16T18:57:40;20.30;69.90
29431;DHT22;16404;49.902;10.074;2022-10-16T19:00:25;20.20;70.00
29431;DHT22;16404;49.902;10.074;2022-10-16T19:03:09;20.10;69.90
29431;DHT22;16404;49.902;10.074;2022-10-16T19:05:54;20.00;69.80
29431;DHT22;16404;49.902;10.074;2022-10-16T19:08:42;20.00;69.50
29431;DHT22;16404;49.902;10.074;2022-10-16T19:11:27;19.90;69.20
29431;DHT22;16404;49.902;10.074;2022-10-16T19:14:13;19.90;69.20
29431;DHT22;16404;49.902;10.074;2022-10-16T19:16:58;19.90;70.00
29431;DHT22;16404;49.902;10.074;2022-10-16T19:19:42;19.80;69.10
29431;DHT22;16404;49.902;10.074;2022-10-16T19:22:27;19.70;69.10
29431;DHT22;16404;49.902;10.074;2022-10-16T19:25:24;19.70;69.30
29431;DHT22;16404;49.902;10.074;2022-10-16T19:28:11;19.60;69.20
29431;DHT22;16404;49.902;10.074;2022-10-16T19:30:55;19.50;69.30
29431;DHT22;16404;49.902;10.074;2022-10-16T19:33:40;19.50;69.50
29431;DHT22;16404;49.902;10.074;2022-10-16T19:36:33;19.50;69.30
29431;DHT22;16404;49.902;10.074;2022-10-16T19:39:17;19.40;69.20
29431;DHT22;16404;49.902;10.074;2022-10-16T19:42:01;19.40;69.00
29431;DHT22;16404;49.902;10.074;2022-10-16T19:44:48;19.30;69.10
29431;DHT22;16404;49.902;10.074;2022-10-16T19:47:32;19.30;69.10
29431;DHT22;16404;49.902;10.074;2022-10-16T19:50:16;19.30;69.10
29431;DHT22;16404;49.902;10.074;2022-10-16T19:53:02;19.20;69.30
29431;DHT22;16404;49.902;10.074;2022-10-16T19:55:47;19.20;69.30
29431;DHT22;16404;49.902;10.074;2022-10-16T19:58:31;19.20;69.10
29431;DHT22;16404;49.902;10.074;2022-10-16T20:01:16;19.10;69.10
29431;DHT22;16404;49.902;10.074;2022-10-16T20:04:01;19.10;68.90
29431;DHT22;16404;49.902;10.074;2022-10-16T20:06:46;19.10;68.70
29431;DHT22;16404;49.902;10.074;2022-10-16T20:09:31;19.10;68.50
29431;DHT22;16404;49.902;10.074;2022-10-16T20:12:16;19.00;68.40
29431;DHT22;16404;49.902;10.074;2022-10-16T20:15:01;18.90;68.20
29431;DHT22;16404;49.902;10.074;2022-10-16T20:17:47;19.00;68.20
29431;DHT22;16404;49.902;10.074;2022-10-16T20:20:34;18.90;68.10